sensor_id;sensor_type;location;lat;lon;timestamp;P1;durP1;ratioP1;P2;durP2;ratioP2
64225;SDS011;50545;56.064;26.178;2024-03-17T00:00:27;15.90;;;9.57;;
64225;SDS011;50545;56.064;26.178;2024-03-17T00:02:53;17.83;;;9.32;;
64225;SDS011;50545;56.064;26.178;2024-03-17T00:05:20;13.27;;;8.43;;
64225;SDS011;50545;56.064;26.178;2024-03-17T00:07:46;15.27;;;9.15;;
64225;SDS011;50545;56.064;26.178;2024-03-17T00:10:12;15.48;;;9.23;;
64225;SDS011;50545;56.064;26.178;2024-03-17T00:12:38;16.48;;;10.05;;
64225;SDS011;50545;56.064;26.178;2024-03-17T00:15:05;17.73;;;9.68;;
64225;SDS011;50545;56.064;26.178;2024-03-17T00:17:34;18.25;;;12.00;;
64225;SDS011;50545;56.064;26.178;2024-03-17T00:20:01;14.88;;;8.48;;
64225;SDS011;50545;56.064;26.178;2024-03-17T00:22:29;15.77;;;9.07;;
64225;SDS011;50545;56.064;26.178;2024-03-17T00:25:00;14.63;;;8.93;;
64225;SDS011;50545;56.064;26.178;2024-03-17T00:27:26;18.77;;;10.02;;
64225;SDS011;50545;56.064;26.178;2024-03-17T00:29:53;16.75;;;10.77;;
64225;SDS011;50545;56.064;26.178;2024-03-17T00:32:19;17.60;;;10.40;;
64225;SDS011;50545;56.064;26.178;2024-03-17T00:34:45;20.10;;;12.82;;
64225;SDS011;50545;56.064;26.178;2024-03-17T00:37:11;17.90;;;8.93;;
64225;SDS011;50545;56.064;26.178;2024-03-17T00:39:38;21.50;;;11.55;;
64225;SDS011;50545;56.064;26.178;2024-03-17T00:42:04;17.80;;;10.38;;
64225;SDS011;50545;56.064;26.178;2024-03-17T00:44:30;17.13;;;9.88;;
64225;SDS011;50545;56.064;26.178;2024-03-17T00:46:56;15.07;;;9.52;;
64225;SDS011;50545;56.064;26.178;2024-03-17T00:49:23;18.52;;;9.60;;
64225;SDS011;50545;56.064;26.178;2024-03-17T00:51:49;16.58;;;10.25;;
64225;SDS011;50545;56.064;26.178;2024-03-17T00:54:15;19.63;;;10.35;;
64225;SDS011;50545;56.064;26.178;2024-03-17T00:56:43;17.90;;;10.35;;
64225;SDS011;50545;56.064;26.178;2024-03-17T00:59:09;19.10;;;11.30;;
64225;SDS011;50545;56.064;26.178;2024-03-17T01:01:36;18.83;;;9.75;;
64225;SDS011;50545;56.064;26.178;2024-03-17T01:04:02;21.15;;;13.23;;
64225;SDS011;50545;56.064;26.178;2024-03-17T01:06:28;17.80;;;11.40;;
64225;SDS011;50545;56.064;26.178;2024-03-17T01:08:55;19.70;;;10.77;;
64225;SDS011;50545;56.064;26.178;2024-03-17T01:11:21;22.02;;;12.68;;
64225;SDS011;50545;56.064;26.178;2024-03-17T01:13:47;15.77;;;8.60;;
64225;SDS011;50545;56.064;26.178;2024-03-17T01:16:14;18.50;;;10.38;;
64225;SDS011;50545;56.064;26.178;2024-03-17T01:18:41;17.55;;;10.55;;
64225;SDS011;50545;56.064;26.178;2024-03-17T01:21:08;19.50;;;11.18;;
64225;SDS011;50545;56.064;26.178;2024-03-17T01:23:35;20.08;;;11.70;;
64225;SDS011;50545;56.064;26.178;2024-03-17T01:26:01;19.15;;;12.10;;
64225;SDS011;50545;56.064;26.178;2024-03-17T01:28:27;22.95;;;12.40;;
64225;SDS011;50545;56.064;26.178;2024-03-17T01:30:54;18.15;;;10.52;;
64225;SDS011;50545;56.064;26.178;2024-03-17T01:33:20;15.50;;;9.05;;
64225;SDS011;50545;56.064;26.178;2024-03-17T01:35:46;17.73;;;9.27;;
64225;SDS011;50545;56.064;26.178;2024-03-17T01:38:12;15.07;;;8.88;;
64225;SDS011;50545;56.064;26.178;2024-03-17T01:40:39;15.57;;;8.95;;
64225;SDS011;50545;56.064;26.178;2024-03-17T01:43:08;21.58;;;11.98;;
64225;SDS011;50545;56.064;26.178;2024-03-17T01:45:37;18.90;;;10.93;;
64225;SDS011;50545;56.064;26.178;2024-03-17T01:48:03;21.33;;;12.05;;
64225;SDS011;50545;56.064;26.178;2024-03-17T01:50:35;19.02;;;11.35;;
64225;SDS011;50545;56.064;26.178;2024-03-17T01:53:03;17.25;;;9.35;;
64225;SDS011;50545;56.064;26.178;2024-03-17T01:55:33;18.92;;;11.40;;
64225;SDS011;50545;56.064;26.178;2024-03-17T01:58:01;16.42;;;9.65;;
64225;SDS011;50545;56.064;26.178;2024-03-17T02:00:29;14.85;;;8.43;;
64225;SDS011;50545;56.064;26.178;2024-03-17T02:02:57;15.60;;;9.05;;
64225;SDS011;50545;56.064;26.178;2024-03-17T02:05:23;16.88;;;8.35;;
64225;SDS011;50545;56.064;26.178;2024-03-17T02:07:49;18.73;;;11.55;;
64225;SDS011;50545;56.064;26.178;2024-03-17T02:10:15;16.08;;;9.63;;
64225;SDS011;50545;56.064;26.178;2024-03-17T02:12:42;15.07;;;7.95;;
64225;SDS011;50545;56.064;26.178;2024-03-17T02:15:08;13.55;;;7.78;;
64225;SDS011;50545;56.064;26.178;2024-03-17T02:17:35;14.02;;;7.72;;
64225;SDS011;50545;56.064;26.178;2024-03-17T02:20:01;17.98;;;9.80;;
64225;SDS011;50545;56.064;26.178;2024-03-17T02:22:36;15.27;;;8.23;;
64225;SDS011;50545;56.064;26.178;2024-03-17T02:25:05;16.05;;;9.30;;
64225;SDS011;50545;56.064;26.178;2024-03-17T02:27:36;14.80;;;8.00;;
64225;SDS011;50545;56.064;26.178;2024-03-17T02:30:03;16.25;;;8.95;;
64225;SDS011;50545;56.064;26.178;2024-03-17T02:32:34;12.93;;;7.82;;
64225;SDS011;50545;56.064;26.178;2024-03-17T02:35:01;13.32;;;8.10;;
64225;SDS011;50545;56.064;26.178;2024-03-17T02:37:30;15.60;;;9.75;;
64225;SDS011;50545;56.064;26.178;2024-03-17T02:39:57;12.60;;;7.05;;
64225;SDS011;50545;56.064;26.178;2024-03-17T02:42:24;16.02;;;8.30;;
64225;SDS011;50545;56.064;26.178;2024-03-17T02:44:50;12.82;;;7.03;;
64225;SDS011;50545;56.064;26.178;2024-03-17T02:47:16;13.38;;;8.73;;
64225;SDS011;50545;56.064;26.178;2024-03-17T02:49:42;16.38;;;8.98;;
64225;SDS011;50545;56.064;26.178;2024-03-17T02:52:09;12.52;;;7.43;;
64225;SDS011;50545;56.064;26.178;2024-03-17T02:54:37;11.23;;;7.32;;
64225;SDS011;50545;56.064;26.178;2024-03-17T02:57:04;12.43;;;7.60;;
64225;SDS011;50545;56.064;26.178;2024-03-17T02:59:32;13.02;;;6.25;;
64225;SDS011;50545;56.064;26.178;2024-03-17T03:01:59;9.13;;;5.22;;
64225;SDS011;50545;56.064;26.178;2024-03-17T03:04:25;8.27;;;4.65;;
64225;SDS011;50545;56.064;26.178;2024-03-17T03:06:52;9.48;;;5.18;;
64225;SDS011;50545;56.064;26.178;2024-03-17T03:09:19;6.15;;;3.70;;
64225;SDS011;50545;56.064;26.178;2024-03-17T03:11:57;5.75;;;3.17;;
64225;SDS011;50545;56.064;26.178;2024-03-17T03:14:28;5.20;;;3.15;;
64225;SDS011;50545;56.064;26.178;2024-03-17T03:16:55;4.32;;;2.38;;
64225;SDS011;50545;56.064;26.178;2024-03-17T03:19:21;5.07;;;2.30;;
64225;SDS011;50545;56.064;26.178;2024-03-17T03:21:47;5.95;;;2.65;;
64225;SDS011;50545;56.064;26.178;2024-03-17T03:24:14;7.57;;;2.80;;
64225;SDS011;50545;56.064;26.178;2024-03-17T03:26:40;5.63;;;2.85;;
64225;SDS011;50545;56.064;26.178;2024-03-17T03:29:07;6.82;;;2.88;;
64225;SDS011;50545;56.064;26.178;2024-03-17T03:31:33;4.75;;;2.47;;
64225;SDS011;50545;56.064;26.178;2024-03-17T03:33:59;5.18;;;2.40;;
64225;SDS011;50545;56.064;26.178;2024-03-17T03:36:29;7.53;;;2.90;;
64225;SDS011;50545;56.064;26.178;2024-03-17T03:38:55;6.03;;;2.75;;
64225;SDS011;50545;56.064;26.178;2024-03-17T03:41:22;8.73;;;2.40;;
64225;SDS011;50545;56.064;26.178;2024-03-17T03:43:50;4.95;;;2.33;;
64225;SDS011;50545;56.064;26.178;2024-03-17T03:46:17;4.78;;;2.35;;
64225;SDS011;50545;56.064;26.178;2024-03-17T03:48:43;4.15;;;2.10;;
64225;SDS011;50545;56.064;26.178;2024-03-17T03:51:10;5.70;;;3.05;;
64225;SDS011;50545;56.064;26.178;2024-03-17T03:53:36;6.28;;;2.22;;
64225;SDS011;50545;56.064;26.178;2024-03-17T03:56:03;3.35;;;2.00;;
64225;SDS011;50545;56.064;26.178;2024-03-17T03:58:34;5.15;;;2.15;;
64225;SDS011;50545;56.064;26.178;2024-03-17T04:01:07;6.03;;;2.60;;
64225;SDS011;50545;56.064;26.178;2024-03-17T04:03:34;4.10;;;1.80;;
64225;SDS011;50545;56.064;26.178;2024-03-17T04:06:02;6.20;;;2.50;;
64225;SDS011;50545;56.064;26.178;2024-03-17T04:08:33;6.20;;;2.67;;
64225;SDS011;50545;56.064;26.178;2024-03-17T04:11:01;4.50;;;2.40;;
64225;SDS011;50545;56.064;26.178;2024-03-17T04:13:28;5.22;;;2.08;;
64225;SDS011;50545;56.064;26.178;2024-03-17T04:15:59;3.72;;;1.90;;
64225;SDS011;50545;56.064;26.178;2024-03-17T04:18:26;2.92;;;1.60;;
64225;SDS011;50545;56.064;26.178;2024-03-17T04:20:56;4.68;;;2.08;;
64225;SDS011;50545;56.064;26.178;2024-03-17T04:23:23;6.47;;;2.00;;
64225;SDS011;50545;56.064;26.178;2024-03-17T04:25:51;3.58;;;1.98;;
64225;SDS011;50545;56.064;26.178;2024-03-17T04:28:18;3.03;;;1.83;;
64225;SDS011;50545;56.064;26.178;2024-03-17T04:30:44;6.68;;;2.05;;
64225;SDS011;50545;56.064;26.178;2024-03-17T04:33:12;6.68;;;2.25;;
64225;SDS011;50545;56.064;26.178;2024-03-17T04:35:39;4.90;;;2.20;;
64225;SDS011;50545;56.064;26.178;2024-03-17T04:38:06;4.53;;;1.63;;
64225;SDS011;50545;56.064;26.178;2024-03-17T04:40:33;6.63;;;2.70;;
64225;SDS011;50545;56.064;26.178;2024-03-17T04:43:00;6.15;;;2.10;;
64225;SDS011;50545;56.064;26.178;2024-03-17T04:45:26;5.70;;;1.80;;
64225;SDS011;50545;56.064;26.178;2024-03-17T04:47:53;6.03;;;2.10;;
64225;SDS011;50545;56.064;26.178;2024-03-17T04:50:19;3.28;;;1.90;;
64225;SDS011;50545;56.064;26.178;2024-03-17T04:52:46;3.45;;;1.75;;
64225;SDS011;50545;56.064;26.178;2024-03-17T04:55:14;3.58;;;1.80;;
64225;SDS011;50545;56.064;26.178;2024-03-17T04:57:43;6.13;;;1.83;;
64225;SDS011;50545;56.064;26.178;2024-03-17T05:00:10;3.72;;;1.83;;
64225;SDS011;50545;56.064;26.178;2024-03-17T05:02:38;5.65;;;1.92;;
64225;SDS011;50545;56.064;26.178;2024-03-17T05:05:04;5.60;;;2.05;;
64225;SDS011;50545;56.064;26.178;2024-03-17T05:07:34;6.97;;;2.65;;
64225;SDS011;50545;56.064;26.178;2024-03-17T05:10:01;5.95;;;2.20;;
64225;SDS011;50545;56.064;26.178;2024-03-17T05:12:27;4.93;;;1.77;;
64225;SDS011;50545;56.064;26.178;2024-03-17T05:14:53;8.05;;;2.50;;
64225;SDS011;50545;56.064;26.178;2024-03-17T05:17:20;9.07;;;2.78;;
64225;SDS011;50545;56.064;26.178;2024-03-17T05:19:46;3.72;;;1.80;;
64225;SDS011;50545;56.064;26.178;2024-03-17T05:22:12;3.97;;;2.08;;
64225;SDS011;50545;56.064;26.178;2024-03-17T05:24:38;5.78;;;1.95;;
64225;SDS011;50545;56.064;26.178;2024-03-17T05:27:05;4.13;;;1.65;;
64225;SDS011;50545;56.064;26.178;2024-03-17T05:29:31;4.63;;;2.03;;
64225;SDS011;50545;56.064;26.178;2024-03-17T05:31:58;4.90;;;1.95;;
64225;SDS011;50545;56.064;26.178;2024-03-17T05:34:24;5.57;;;1.73;;
64225;SDS011;50545;56.064;26.178;2024-03-17T05:36:51;5.55;;;1.90;;
64225;SDS011;50545;56.064;26.178;2024-03-17T05:39:17;5.88;;;1.77;;
64225;SDS011;50545;56.064;26.178;2024-03-17T05:41:45;4.63;;;1.65;;
64225;SDS011;50545;56.064;26.178;2024-03-17T05:44:14;9.00;;;2.10;;
64225;SDS011;50545;56.064;26.178;2024-03-17T05:46:41;5.85;;;2.35;;
64225;SDS011;50545;56.064;26.178;2024-03-17T05:49:07;4.30;;;1.75;;
64225;SDS011;50545;56.064;26.178;2024-03-17T05:51:34;4.35;;;1.48;;
64225;SDS011;50545;56.064;26.178;2024-03-17T05:54:00;5.38;;;1.85;;
64225;SDS011;50545;56.064;26.178;2024-03-17T05:56:26;5.07;;;1.40;;
64225;SDS011;50545;56.064;26.178;2024-03-17T05:58:52;6.43;;;1.70;;
64225;SDS011;50545;56.064;26.178;2024-03-17T06:01:19;2.95;;;1.45;;
64225;SDS011;50545;56.064;26.178;2024-03-17T06:03:46;5.32;;;1.70;;
64225;SDS011;50545;56.064;26.178;2024-03-17T06:06:13;4.57;;;1.55;;
64225;SDS011;50545;56.064;26.178;2024-03-17T06:08:39;4.47;;;1.35;;
64225;SDS011;50545;56.064;26.178;2024-03-17T06:11:06;3.63;;;1.40;;
64225;SDS011;50545;56.064;26.178;2024-03-17T06:13:33;4.90;;;1.88;;
64225;SDS011;50545;56.064;26.178;2024-03-17T06:16:01;5.88;;;1.52;;
64225;SDS011;50545;56.064;26.178;2024-03-17T06:18:28;5.00;;;1.70;;
64225;SDS011;50545;56.064;26.178;2024-03-17T06:20:55;3.17;;;1.30;;
64225;SDS011;50545;56.064;26.178;2024-03-17T06:23:24;3.78;;;1.50;;
64225;SDS011;50545;56.064;26.178;2024-03-17T06:25:54;6.80;;;2.22;;
64225;SDS011;50545;56.064;26.178;2024-03-17T06:28:21;5.57;;;1.70;;
64225;SDS011;50545;56.064;26.178;2024-03-17T06:30:54;6.03;;;1.75;;
64225;SDS011;50545;56.064;26.178;2024-03-17T06:33:26;5.05;;;1.50;;
64225;SDS011;50545;56.064;26.178;2024-03-17T06:35:57;6.75;;;1.48;;
64225;SDS011;50545;56.064;26.178;2024-03-17T06:38:24;4.28;;;1.33;;
64225;SDS011;50545;56.064;26.178;2024-03-17T06:40:51;6.78;;;1.55;;
64225;SDS011;50545;56.064;26.178;2024-03-17T06:43:17;4.65;;;1.50;;
64225;SDS011;50545;56.064;26.178;2024-03-17T06:45:57;5.20;;;1.40;;
64225;SDS011;50545;56.064;26.178;2024-03-17T06:48:25;5.38;;;1.77;;
64225;SDS011;50545;56.064;26.178;2024-03-17T06:50:53;4.78;;;1.30;;
64225;SDS011;50545;56.064;26.178;2024-03-17T06:53:26;10.55;;;2.13;;
64225;SDS011;50545;56.064;26.178;2024-03-17T06:56:01;7.15;;;1.60;;
64225;SDS011;50545;56.064;26.178;2024-03-17T06:58:27;5.88;;;1.42;;
64225;SDS011;50545;56.064;26.178;2024-03-17T07:01:00;6.50;;;2.10;;
64225;SDS011;50545;56.064;26.178;2024-03-17T07:03:27;2.72;;;1.48;;
64225;SDS011;50545;56.064;26.178;2024-03-17T07:05:58;5.75;;;1.77;;
64225;SDS011;50545;56.064;26.178;2024-03-17T07:08:28;8.20;;;1.90;;
64225;SDS011;50545;56.064;26.178;2024-03-17T07:11:04;4.28;;;1.65;;
64225;SDS011;50545;56.064;26.178;2024-03-17T07:13:33;4.65;;;1.45;;
64225;SDS011;50545;56.064;26.178;2024-03-17T07:16:00;5.40;;;1.15;;
64225;SDS011;50545;56.064;26.178;2024-03-17T07:18:28;4.43;;;1.67;;
64225;SDS011;50545;56.064;26.178;2024-03-17T07:21:01;9.07;;;2.17;;
64225;SDS011;50545;56.064;26.178;2024-03-17T07:23:35;3.92;;;1.17;;
64225;SDS011;50545;56.064;26.178;2024-03-17T07:26:02;2.90;;;1.23;;
64225;SDS011;50545;56.064;26.178;2024-03-17T07:28:30;6.20;;;1.60;;
64225;SDS011;50545;56.064;26.178;2024-03-17T07:30:58;3.25;;;1.33;;
64225;SDS011;50545;56.064;26.178;2024-03-17T07:33:27;3.88;;;1.55;;
64225;SDS011;50545;56.064;26.178;2024-03-17T07:35:55;7.07;;;1.73;;
64225;SDS011;50545;56.064;26.178;2024-03-17T07:38:25;4.22;;;1.60;;
64225;SDS011;50545;56.064;26.178;2024-03-17T07:41:02;5.72;;;1.80;;
64225;SDS011;50545;56.064;26.178;2024-03-17T07:43:33;5.90;;;1.80;;
64225;SDS011;50545;56.064;26.178;2024-03-17T07:46:02;5.10;;;1.50;;
64225;SDS011;50545;56.064;26.178;2024-03-17T07:48:33;3.88;;;1.17;;
64225;SDS011;50545;56.064;26.178;2024-03-17T07:51:02;4.85;;;1.73;;
64225;SDS011;50545;56.064;26.178;2024-03-17T07:53:29;3.60;;;1.60;;
64225;SDS011;50545;56.064;26.178;2024-03-17T07:56:03;4.07;;;1.58;;
64225;SDS011;50545;56.064;26.178;2024-03-17T07:58:37;4.22;;;1.52;;
64225;SDS011;50545;56.064;26.178;2024-03-17T08:01:05;4.43;;;1.75;;
64225;SDS011;50545;56.064;26.178;2024-03-17T08:03:34;5.25;;;1.30;;
64225;SDS011;50545;56.064;26.178;2024-03-17T08:06:02;3.03;;;1.02;;
64225;SDS011;50545;56.064;26.178;2024-03-17T08:08:30;2.10;;;0.80;;
64225;SDS011;50545;56.064;26.178;2024-03-17T08:10:57;2.95;;;1.10;;
64225;SDS011;50545;56.064;26.178;2024-03-17T08:13:24;3.00;;;1.23;;
64225;SDS011;50545;56.064;26.178;2024-03-17T08:15:57;2.63;;;1.05;;
64225;SDS011;50545;56.064;26.178;2024-03-17T08:18:24;2.38;;;1.15;;
64225;SDS011;50545;56.064;26.178;2024-03-17T08:20:52;4.15;;;1.30;;
64225;SDS011;50545;56.064;26.178;2024-03-17T08:23:22;4.22;;;1.30;;
64225;SDS011;50545;56.064;26.178;2024-03-17T08:25:55;3.92;;;0.93;;
64225;SDS011;50545;56.064;26.178;2024-03-17T08:28:24;4.35;;;1.30;;
64225;SDS011;50545;56.064;26.178;2024-03-17T08:30:54;3.15;;;0.88;;
64225;SDS011;50545;56.064;26.178;2024-03-17T08:33:21;1.90;;;0.90;;
64225;SDS011;50545;56.064;26.178;2024-03-17T08:36:07;3.65;;;1.08;;
64225;SDS011;50545;56.064;26.178;2024-03-17T08:38:34;2.70;;;0.93;;
64225;SDS011;50545;56.064;26.178;2024-03-17T08:41:05;4.20;;;1.15;;
64225;SDS011;50545;56.064;26.178;2024-03-17T08:43:33;1.98;;;0.93;;
64225;SDS011;50545;56.064;26.178;2024-03-17T08:46:04;4.65;;;1.13;;
64225;SDS011;50545;56.064;26.178;2024-03-17T08:48:32;3.22;;;1.33;;
64225;SDS011;50545;56.064;26.178;2024-03-17T08:51:00;4.70;;;1.50;;
64225;SDS011;50545;56.064;26.178;2024-03-17T08:53:27;3.67;;;0.80;;
64225;SDS011;50545;56.064;26.178;2024-03-17T08:55:54;3.30;;;0.77;;
64225;SDS011;50545;56.064;26.178;2024-03-17T08:58:21;3.05;;;0.75;;
64225;SDS011;50545;56.064;26.178;2024-03-17T09:00:48;3.80;;;1.10;;
64225;SDS011;50545;56.064;26.178;2024-03-17T09:03:15;3.92;;;1.23;;
64225;SDS011;50545;56.064;26.178;2024-03-17T09:05:42;2.95;;;1.00;;
64225;SDS011;50545;56.064;26.178;2024-03-17T09:08:17;1.85;;;0.70;;
64225;SDS011;50545;56.064;26.178;2024-03-17T09:10:46;5.22;;;1.02;;
64225;SDS011;50545;56.064;26.178;2024-03-17T09:13:14;2.33;;;0.90;;
64225;SDS011;50545;56.064;26.178;2024-03-17T09:15:49;2.53;;;1.10;;
64225;SDS011;50545;56.064;26.178;2024-03-17T09:18:16;2.92;;;1.00;;
64225;SDS011;50545;56.064;26.178;2024-03-17T09:20:42;1.73;;;0.77;;
64225;SDS011;50545;56.064;26.178;2024-03-17T09:23:09;2.55;;;0.88;;
64225;SDS011;50545;56.064;26.178;2024-03-17T09:25:35;3.00;;;1.02;;
64225;SDS011;50545;56.064;26.178;2024-03-17T09:28:02;3.35;;;1.00;;
64225;SDS011;50545;56.064;26.178;2024-03-17T09:30:29;2.63;;;1.00;;
64225;SDS011;50545;56.064;26.178;2024-03-17T09:32:55;3.50;;;1.25;;
64225;SDS011;50545;56.064;26.178;2024-03-17T09:35:21;1.80;;;1.00;;
64225;SDS011;50545;56.064;26.178;2024-03-17T09:37:48;3.65;;;1.17;;
64225;SDS011;50545;56.064;26.178;2024-03-17T09:40:14;4.47;;;1.45;;
64225;SDS011;50545;56.064;26.178;2024-03-17T09:42:41;1.48;;;0.70;;
64225;SDS011;50545;56.064;26.178;2024-03-17T09:45:09;2.30;;;0.98;;
64225;SDS011;50545;56.064;26.178;2024-03-17T09:47:36;1.73;;;0.85;;
64225;SDS011;50545;56.064;26.178;2024-03-17T09:50:02;1.20;;;0.50;;
64225;SDS011;50545;56.064;26.178;2024-03-17T09:52:30;3.92;;;1.45;;
64225;SDS011;50545;56.064;26.178;2024-03-17T09:54:59;1.73;;;0.75;;
64225;SDS011;50545;56.064;26.178;2024-03-17T09:57:44;1.58;;;0.70;;
64225;SDS011;50545;56.064;26.178;2024-03-17T10:00:10;3.00;;;1.10;;
64225;SDS011;50545;56.064;26.178;2024-03-17T10:02:45;3.55;;;1.08;;
64225;SDS011;50545;56.064;26.178;2024-03-17T10:05:22;3.65;;;0.98;;
64225;SDS011;50545;56.064;26.178;2024-03-17T10:07:50;3.30;;;0.85;;
64225;SDS011;50545;56.064;26.178;2024-03-17T10:10:17;2.10;;;0.80;;
64225;SDS011;50545;56.064;26.178;2024-03-17T10:12:49;1.70;;;0.88;;
64225;SDS011;50545;56.064;26.178;2024-03-17T10:15:19;3.88;;;1.10;;
64225;SDS011;50545;56.064;26.178;2024-03-17T10:17:45;3.15;;;0.90;;
64225;SDS011;50545;56.064;26.178;2024-03-17T10:22:58;3.30;;;1.10;;
64225;SDS011;50545;56.064;26.178;2024-03-17T10:25:34;0.95;;;0.50;;
64225;SDS011;50545;56.064;26.178;2024-03-17T10:28:11;2.88;;;0.70;;
64225;SDS011;50545;56.064;26.178;2024-03-17T10:30:38;4.03;;;1.25;;
64225;SDS011;50545;56.064;26.178;2024-03-17T10:33:05;4.35;;;1.00;;
64225;SDS011;50545;56.064;26.178;2024-03-17T10:35:37;2.80;;;1.23;;
64225;SDS011;50545;56.064;26.178;2024-03-17T10:38:09;4.18;;;1.60;;
64225;SDS011;50545;56.064;26.178;2024-03-17T10:40:38;1.90;;;0.80;;
64225;SDS011;50545;56.064;26.178;2024-03-17T10:43:06;3.50;;;0.82;;
64225;SDS011;50545;56.064;26.178;2024-03-17T10:45:32;2.03;;;0.98;;
64225;SDS011;50545;56.064;26.178;2024-03-17T10:48:07;1.85;;;0.90;;
64225;SDS011;50545;56.064;26.178;2024-03-17T10:50:35;2.58;;;0.93;;
64225;SDS011;50545;56.064;26.178;2024-03-17T10:53:06;1.20;;;0.70;;
64225;SDS011;50545;56.064;26.178;2024-03-17T10:55:47;1.30;;;0.83;;
64225;SDS011;50545;56.064;26.178;2024-03-17T10:58:31;2.00;;;0.98;;
64225;SDS011;50545;56.064;26.178;2024-03-17T11:01:01;2.30;;;1.08;;
64225;SDS011;50545;56.064;26.178;2024-03-17T11:03:33;2.50;;;1.05;;
64225;SDS011;50545;56.064;26.178;2024-03-17T11:06:01;1.50;;;0.77;;
64225;SDS011;50545;56.064;26.178;2024-03-17T11:08:34;2.05;;;0.70;;
64225;SDS011;50545;56.064;26.178;2024-03-17T11:11:01;1.85;;;0.70;;
64225;SDS011;50545;56.064;26.178;2024-03-17T11:13:30;1.38;;;0.63;;
64225;SDS011;50545;56.064;26.178;2024-03-17T11:15:58;3.55;;;1.00;;
64225;SDS011;50545;56.064;26.178;2024-03-17T11:20:56;1.00;;;0.70;;
64225;SDS011;50545;56.064;26.178;2024-03-17T11:23:34;1.67;;;0.80;;
64225;SDS011;50545;56.064;26.178;2024-03-17T11:26:03;1.35;;;0.70;;
64225;SDS011;50545;56.064;26.178;2024-03-17T11:34:25;2.42;;;0.85;;
64225;SDS011;50545;56.064;26.178;2024-03-17T11:36:56;2.72;;;1.08;;
64225;SDS011;50545;56.064;26.178;2024-03-17T11:42:24;1.30;;;0.60;;
64225;SDS011;50545;56.064;26.178;2024-03-17T11:45:04;1.15;;;0.73;;
64225;SDS011;50545;56.064;26.178;2024-03-17T11:47:35;2.05;;;0.80;;
64225;SDS011;50545;56.064;26.178;2024-03-17T11:50:03;2.50;;;1.02;;
64225;SDS011;50545;56.064;26.178;2024-03-17T11:52:31;3.00;;;1.35;;
64225;SDS011;50545;56.064;26.178;2024-03-17T11:54:57;2.50;;;1.38;;
64225;SDS011;50545;56.064;26.178;2024-03-17T11:57:24;3.40;;;1.45;;
64225;SDS011;50545;56.064;26.178;2024-03-17T11:59:52;4.07;;;1.10;;
64225;SDS011;50545;56.064;26.178;2024-03-17T12:02:25;3.35;;;1.05;;
64225;SDS011;50545;56.064;26.178;2024-03-17T12:04:53;3.65;;;1.55;;
64225;SDS011;50545;56.064;26.178;2024-03-17T12:07:22;3.92;;;1.40;;
64225;SDS011;50545;56.064;26.178;2024-03-17T12:09:52;2.17;;;1.23;;
64225;SDS011;50545;56.064;26.178;2024-03-17T12:12:23;3.47;;;1.17;;
64225;SDS011;50545;56.064;26.178;2024-03-17T12:14:51;3.05;;;1.10;;
64225;SDS011;50545;56.064;26.178;2024-03-17T12:17:21;4.25;;;1.50;;
64225;SDS011;50545;56.064;26.178;2024-03-17T12:19:50;0.70;;;0.70;;
64225;SDS011;50545;56.064;26.178;2024-03-17T12:22:19;2.58;;;1.27;;
64225;SDS011;50545;56.064;26.178;2024-03-17T12:24:51;2.30;;;1.00;;
64225;SDS011;50545;56.064;26.178;2024-03-17T12:27:19;1.73;;;1.05;;
64225;SDS011;50545;56.064;26.178;2024-03-17T12:29:53;0.68;;;0.65;;
64225;SDS011;50545;56.064;26.178;2024-03-17T12:34:51;1.55;;;0.80;;
64225;SDS011;50545;56.064;26.178;2024-03-17T12:37:25;0.85;;;0.80;;
64225;SDS011;50545;56.064;26.178;2024-03-17T12:39:58;2.30;;;1.13;;
64225;SDS011;50545;56.064;26.178;2024-03-17T12:42:28;1.08;;;0.70;;
64225;SDS011;50545;56.064;26.178;2024-03-17T12:47:29;3.80;;;1.30;;
64225;SDS011;50545;56.064;26.178;2024-03-17T12:49:57;2.28;;;1.00;;
64225;SDS011;50545;56.064;26.178;2024-03-17T12:52:28;1.85;;;0.95;;
64225;SDS011;50545;56.064;26.178;2024-03-17T12:57:50;2.30;;;0.75;;
64225;SDS011;50545;56.064;26.178;2024-03-17T13:00:36;0.90;;;0.82;;
64225;SDS011;50545;56.064;26.178;2024-03-17T13:03:03;1.52;;;0.95;;
64225;SDS011;50545;56.064;26.178;2024-03-17T13:05:34;3.10;;;0.93;;
64225;SDS011;50545;56.064;26.178;2024-03-17T13:08:02;2.15;;;0.90;;
64225;SDS011;50545;56.064;26.178;2024-03-17T13:10:29;1.42;;;0.77;;
64225;SDS011;50545;56.064;26.178;2024-03-17T13:13:03;1.92;;;0.93;;
64225;SDS011;50545;56.064;26.178;2024-03-17T13:15:31;2.08;;;0.90;;
64225;SDS011;50545;56.064;26.178;2024-03-17T13:17:58;2.08;;;1.00;;
64225;SDS011;50545;56.064;26.178;2024-03-17T13:20:24;1.42;;;0.85;;
64225;SDS011;50545;56.064;26.178;2024-03-17T13:22:51;2.70;;;1.05;;
64225;SDS011;50545;56.064;26.178;2024-03-17T13:25:18;2.47;;;1.20;;
64225;SDS011;50545;56.064;26.178;2024-03-17T13:27:50;0.75;;;0.60;;
64225;SDS011;50545;56.064;26.178;2024-03-17T13:30:16;0.30;;;0.30;;
64225;SDS011;50545;56.064;26.178;2024-03-17T13:32:44;0.80;;;0.45;;
64225;SDS011;50545;56.064;26.178;2024-03-17T13:37:46;0.50;;;0.50;;
64225;SDS011;50545;56.064;26.178;2024-03-17T13:40:14;0.30;;;0.30;;
64225;SDS011;50545;56.064;26.178;2024-03-17T13:42:44;0.68;;;0.50;;
64225;SDS011;50545;56.064;26.178;2024-03-17T13:45:20;0.85;;;0.68;;
64225;SDS011;50545;56.064;26.178;2024-03-17T13:47:55;1.13;;;0.50;;
64225;SDS011;50545;56.064;26.178;2024-03-17T13:50:22;1.13;;;0.65;;
64225;SDS011;50545;56.064;26.178;2024-03-17T13:52:48;0.60;;;0.60;;
64225;SDS011;50545;56.064;26.178;2024-03-17T13:55:16;1.45;;;0.45;;
64225;SDS011;50545;56.064;26.178;2024-03-17T13:57:44;2.63;;;0.60;;
64225;SDS011;50545;56.064;26.178;2024-03-17T14:00:12;1.50;;;0.68;;
64225;SDS011;50545;56.064;26.178;2024-03-17T14:02:45;2.17;;;0.77;;
64225;SDS011;50545;56.064;26.178;2024-03-17T14:05:13;0.98;;;0.85;;
64225;SDS011;50545;56.064;26.178;2024-03-17T14:07:41;1.75;;;0.70;;
64225;SDS011;50545;56.064;26.178;2024-03-17T14:10:09;1.00;;;0.65;;
64225;SDS011;50545;56.064;26.178;2024-03-17T14:12:37;1.08;;;0.70;;
64225;SDS011;50545;56.064;26.178;2024-03-17T14:15:06;1.55;;;1.10;;
64225;SDS011;50545;56.064;26.178;2024-03-17T14:17:37;0.93;;;0.52;;
64225;SDS011;50545;56.064;26.178;2024-03-17T14:22:45;1.63;;;0.65;;
64225;SDS011;50545;56.064;26.178;2024-03-17T14:25:22;0.93;;;0.57;;
64225;SDS011;50545;56.064;26.178;2024-03-17T14:27:50;0.75;;;0.63;;
64225;SDS011;50545;56.064;26.178;2024-03-17T14:30:17;2.67;;;0.60;;
64225;SDS011;50545;56.064;26.178;2024-03-17T14:32:44;3.80;;;1.13;;
64225;SDS011;50545;56.064;26.178;2024-03-17T14:35:15;1.77;;;0.95;;
64225;SDS011;50545;56.064;26.178;2024-03-17T14:37:42;1.55;;;0.60;;
64225;SDS011;50545;56.064;26.178;2024-03-17T14:40:14;1.77;;;1.05;;
64225;SDS011;50545;56.064;26.178;2024-03-17T14:42:49;0.63;;;0.63;;
64225;SDS011;50545;56.064;26.178;2024-03-17T14:45:17;1.23;;;0.77;;
64225;SDS011;50545;56.064;26.178;2024-03-17T14:47:44;0.55;;;0.52;;
64225;SDS011;50545;56.064;26.178;2024-03-17T14:50:12;1.05;;;0.63;;
64225;SDS011;50545;56.064;26.178;2024-03-17T14:52:38;2.63;;;0.70;;
64225;SDS011;50545;56.064;26.178;2024-03-17T14:55:09;1.55;;;0.80;;
64225;SDS011;50545;56.064;26.178;2024-03-17T14:57:36;0.30;;;0.30;;
64225;SDS011;50545;56.064;26.178;2024-03-17T15:00:07;0.57;;;0.57;;
64225;SDS011;50545;56.064;26.178;2024-03-17T15:02:50;1.38;;;0.60;;
64225;SDS011;50545;56.064;26.178;2024-03-17T15:05:17;1.33;;;0.77;;